Time;durP1;ratioP1;P1;durP2;ratioP2;P2;SDS_P1;SDS_P2;PMS_P1;PMS_P2;Temp;Humidity;BMP_temperature;BMP_pressure;BME280_temperature;BME280_humidity;BME280_pressure;Samples;Min_cycle;Max_cycle;Signal;HPM_P1;HPM_P2
2022/02/03 00:00:31;;;;;;;13.60;3.87;;;2.30;1.00;;;;;;5132608;27;20716;-69
2022/02/03 00:03:06;;;;;;;12.10;3.77;;;2.30;1.00;;;;;;5133603;27;20729;-69
2022/02/03 00:05:44;;;;;;;13.60;4.00;;;2.30;1.00;;;;;;5134454;27;20212;-69
2022/02/03 00:08:21;;;;;;;12.80;4.03;;;2.40;1.00;;;;;;5133882;27;20243;-69
2022/02/03 00:22:08;;;;;;;8.97;2.90;;;2.60;1.00;;;;;;5133595;27;20268;-69
2022/02/03 00:24:55;;;;;;;5.57;2.13;;;2.70;1.00;;;;;;5131439;27;20214;-69
2022/02/03 00:30:17;;;;;;;7.97;2.30;;;2.80;1.00;;;;;;5133011;27;20570;-69
2022/02/03 00:35:41;;;;;;;8.73;2.57;;;2.80;1.00;;;;;;5114689;27;20284;-69
2022/02/03 00:49:15;;;;;;;8.37;2.13;;;2.90;1.00;;;;;;5120278;27;20198;-69
2022/02/03 00:51:46;;;;;;;11.70;2.70;;;2.80;1.00;;;;;;5133129;27;20295;-69
2022/02/03 00:54:15;;;;;;;10.40;2.77;;;2.90;1.00;;;;;;5133407;27;20203;-69
2022/02/03 00:56:48;;;;;;;10.30;2.90;;;2.90;1.00;;;;;;5132140;27;20232;-69
2022/02/03 00:59:20;;;;;;;10.43;2.40;;;2.90;1.00;;;;;;5131474;27;20192;-69
2022/02/03 01:01:51;;;;;;;7.47;3.37;;;2.90;1.00;;;;;;5117694;27;20200;-69
2022/02/03 01:04:19;;;;;;;6.67;3.20;;;2.90;1.00;;;;;;5133159;27;20292;-69
2022/02/03 01:06:51;;;;;;;10.73;3.13;;;2.90;1.00;;;;;;5133179;27;20224;-69
2022/02/03 01:09:20;;;;;;;7.63;2.20;;;2.80;1.00;;;;;;5133058;27;20212;-69
2022/02/03 01:11:49;;;;;;;9.97;2.47;;;2.80;1.00;;;;;;5131672;27;20200;-69
2022/02/03 01:14:21;;;;;;;16.10;3.50;;;3.00;1.00;;;;;;5131129;27;20571;-69
2022/02/03 01:19:58;;;;;;;10.50;3.60;;;3.10;1.00;;;;;;5131392;27;20208;-69
2022/02/03 01:33:50;;;;;;;7.53;2.53;;;3.10;1.00;;;;;;5117430;27;20199;-69
2022/02/03 01:44:50;;;;;;;7.97;2.20;;;3.30;1.00;;;;;;5132295;27;20200;-69
2022/02/03 01:47:34;;;;;;;14.07;2.70;;;3.20;1.00;;;;;;5131062;27;20750;-69
2022/02/03 01:52:54;;;;;;;12.07;2.47;;;3.50;1.00;;;;;;5132830;27;20214;-69
2022/02/03 01:55:24;;;;;;;8.60;2.70;;;3.40;1.00;;;;;;5131052;27;20226;-69
2022/02/03 01:57:58;;;;;;;12.13;2.77;;;3.50;1.00;;;;;;5131693;27;20200;-69
2022/02/03 02:00:26;;;;;;;8.13;2.60;;;3.50;1.00;;;;;;5130906;27;20254;-69
2022/02/03 02:03:14;;;;;;;11.63;3.63;;;3.70;1.00;;;;;;5130232;27;20197;-69
2022/02/03 02:05:57;;;;;;;17.03;3.17;;;3.80;1.00;;;;;;5123499;27;20221;-69
2022/02/03 02:08:38;;;;;;;15.73;3.23;;;3.80;1.00;;;;;;5128208;27;20200;-68
2022/02/03 02:11:30;;;;;;;11.07;2.97;;;4.00;1.00;;;;;;5132229;27;20204;-69
2022/02/03 02:14:14;;;;;;;16.80;3.47;;;4.20;1.00;;;;;;5131479;27;20223;-69
2022/02/03 02:19:45;;;;;;;13.97;3.80;;;4.40;1.00;;;;;;5126625;27;21219;-69
2022/02/03 02:39:11;;;;;;;13.20;3.77;;;4.60;1.00;;;;;;5131091;27;20299;-69
2022/02/03 02:44:52;;;;;;;15.63;5.30;;;4.60;1.00;;;;;;5131526;27;20203;-69
2022/02/03 02:47:28;;;;;;;20.27;4.47;;;4.60;1.00;;;;;;5128993;27;20241;-69
2022/02/03 02:50:05;;;;;;;21.03;4.87;;;4.50;1.00;;;;;;5131447;27;20216;-69
2022/02/03 02:52:42;;;;;;;15.63;5.10;;;4.60;52.10;;;;;;5130024;27;20200;-69
2022/02/03 02:55:25;;;;;;;17.70;4.40;;;4.50;81.00;;;;;;5129469;27;20576;-69
2022/02/03 02:58:18;;;;;;;22.73;7.00;;;4.50;99.90;;;;;;5129184;27;20563;-69
2022/02/03 03:34:47;;;;;;;21.30;7.17;;;4.90;99.90;;;;;;5131212;27;20196;-76
2022/02/03 03:37:26;;;;;;;23.47;7.13;;;5.10;99.90;;;;;;5135347;27;20610;-75
2022/02/03 03:39:58;;;;;;;25.93;8.43;;;5.20;99.90;;;;;;5134953;27;20287;-76
2022/02/03 03:42:31;;;;;;;22.40;7.90;;;5.10;99.90;;;;;;5100746;28;20204;-76
2022/02/03 03:45:02;;;;;;;25.40;7.40;;;5.10;99.90;;;;;;5129915;27;20196;-76
2022/02/03 03:47:33;;;;;;;19.23;7.47;;;5.10;99.90;;;;;;5130320;27;20221;-75
2022/02/03 03:50:07;;;;;;;23.07;7.40;;;5.20;99.90;;;;;;5115031;28;20193;-75
2022/02/03 03:52:43;;;;;;;20.53;7.03;;;5.10;99.90;;;;;;5126831;27;20204;-75
2022/02/03 03:55:19;;;;;;;23.80;7.37;;;5.10;99.90;;;;;;5135180;27;20680;-75
2022/02/03 03:58:03;;;;;;;22.03;6.10;;;5.20;99.90;;;;;;5133521;27;20578;-75
2022/02/03 04:00:50;;;;;;;20.73;7.00;;;5.20;99.90;;;;;;5134807;27;20196;-75
2022/02/03 04:37:54;;;;;;;17.73;6.37;;;5.40;99.90;;;;;;5091611;27;20522;-75
2022/02/03 04:56:16;;;;;;;13.77;5.90;;;5.50;99.90;;;;;;5134093;27;20336;-76
2022/02/03 04:59:23;;;;;;;13.63;5.53;;;5.40;99.90;;;;;;5134093;27;20226;-76
2022/02/03 05:02:18;;;;;;;14.83;5.60;;;5.50;99.90;;;;;;5134075;27;20225;-76
2022/02/03 05:05:10;;;;;;;14.57;5.73;;;5.50;99.90;;;;;;5133946;27;20562;-76
2022/02/03 05:08:21;;;;;;;11.30;4.93;;;5.40;99.90;;;;;;5133991;27;20222;-76
2022/02/03 05:11:15;;;;;;;12.03;5.13;;;5.50;99.90;;;;;;5133871;27;20212;-76
2022/02/03 05:17:12;;;;;;;14.03;4.90;;;5.40;99.90;;;;;;5106078;28;20348;-76
2022/02/03 05:20:23;;;;;;;10.07;4.93;;;5.50;99.90;;;;;;5112742;28;20211;-76
2022/02/03 05:26:30;;;;;;;9.87;4.87;;;5.60;99.90;;;;;;5125294;27;20243;-76
2022/02/03 05:32:54;;;;;;;7.20;4.23;;;5.60;99.90;;;;;;5132120;27;20199;-76
2022/02/03 05:42:00;;;;;;;10.77;5.13;;;5.60;99.90;;;;;;5114023;27;20766;-76
2022/02/03 05:44:29;;;;;;;13.23;5.70;;;5.70;99.90;;;;;;5131665;27;20727;-76
2022/02/03 05:53:06;;;;;;;9.63;5.60;;;5.80;99.90;;;;;;5133141;27;20192;-77
2022/02/03 06:09:48;;;;;;;11.67;6.53;;;5.90;99.90;;;;;;5122125;27;20192;-76
2022/02/03 06:12:39;;;;;;;12.20;6.40;;;5.90;99.90;;;;;;5132285;27;20207;-76
2022/02/03 06:15:13;;;;;;;15.13;7.20;;;5.90;99.90;;;;;;5132836;27;20560;-76
2022/02/03 06:21:12;;;;;;;13.60;6.40;;;5.90;99.90;;;;;;5096542;27;20215;-76
2022/02/03 06:23:48;;;;;;;12.27;7.23;;;5.90;99.90;;;;;;5130193;27;20604;-76
2022/02/03 06:29:20;;;;;;;14.87;7.03;;;5.90;99.90;;;;;;5047164;28;20592;-76
2022/02/03 06:31:51;;;;;;;9.97;6.30;;;5.90;99.90;;;;;;5047014;28;20215;-76
2022/02/03 06:34:18;;;;;;;11.87;7.50;;;5.90;99.90;;;;;;5087575;27;20685;-76
2022/02/03 06:36:46;;;;;;;9.93;6.33;;;5.90;99.90;;;;;;5129662;27;20196;-76
2022/02/03 06:39:15;;;;;;;10.37;6.00;;;5.90;99.90;;;;;;5130853;27;20681;-76
2022/02/03 06:41:42;;;;;;;11.33;6.77;;;6.00;99.90;;;;;;5130140;27;20610;-76
2022/02/03 06:44:12;;;;;;;12.70;7.00;;;6.00;99.90;;;;;;5131581;27;20537;-76
2022/02/03 06:46:44;;;;;;;12.77;7.10;;;6.00;99.90;;;;;;5131596;27;20228;-76
2022/02/03 06:49:17;;;;;;;10.87;7.10;;;6.10;99.90;;;;;;5130368;27;20290;-76
2022/02/03 06:51:52;;;;;;;11.60;7.30;;;6.20;99.90;;;;;;5131920;27;20245;-76
2022/02/03 06:54:27;;;;;;;11.70;6.83;;;6.10;99.90;;;;;;5131142;27;20244;-76
2022/02/03 06:56:58;;;;;;;10.80;6.87;;;6.10;99.90;;;;;;5132195;27;20726;-73
2022/02/03 06:59:34;;;;;;;11.00;6.40;;;6.10;99.90;;;;;;5130695;27;20669;-73
2022/02/03 07:02:04;;;;;;;12.97;6.97;;;6.10;99.90;;;;;;5129807;27;20562;-73
2022/02/03 07:04:39;;;;;;;12.43;7.47;;;6.20;99.90;;;;;;5130384;27;20214;-72
2022/02/03 07:07:06;;;;;;;11.13;7.10;;;6.20;99.90;;;;;;5131428;28;20258;-72
2022/02/03 07:09:33;;;;;;;11.33;7.33;;;6.20;99.90;;;;;;5130107;28;20196;-73
2022/02/03 07:12:02;;;;;;;12.83;7.17;;;6.30;99.90;;;;;;5131220;28;20204;-73
2022/02/03 07:14:31;;;;;;;12.70;8.17;;;6.30;99.90;;;;;;5131236;28;20320;-72
2022/02/03 07:17:01;;;;;;;11.83;7.23;;;6.40;99.90;;;;;;5130562;28;20199;-73
2022/02/03 07:19:30;;;;;;;12.57;8.27;;;6.40;99.90;;;;;;5131842;28;20207;-73
2022/02/03 07:21:57;;;;;;;11.33;7.10;;;6.40;99.90;;;;;;5131107;28;20252;-73
2022/02/03 07:24:25;;;;;;;13.10;7.57;;;6.40;99.90;;;;;;5118092;28;20632;-73
2022/02/03 07:26:52;;;;;;;14.60;8.50;;;6.50;99.90;;;;;;5131249;28;20216;-73
2022/02/03 07:29:19;;;;;;;14.00;8.37;;;6.50;99.90;;;;;;5124593;28;20241;-73
2022/02/03 07:31:46;;;;;;;14.37;8.87;;;6.50;99.90;;;;;;5124882;28;20272;-73
2022/02/03 07:34:15;;;;;;;12.83;8.07;;;6.50;99.90;;;;;;5110279;28;20662;-73
2022/02/03 07:36:45;;;;;;;13.23;7.80;;;6.50;99.90;;;;;;5107848;28;20205;-72
2022/02/03 07:39:12;;;;;;;14.30;8.90;;;6.60;99.90;;;;;;5128129;28;20311;-72
2022/02/03 07:41:40;;;;;;;11.70;7.60;;;6.50;99.90;;;;;;5131264;28;20204;-73
2022/02/03 07:44:07;;;;;;;12.57;8.07;;;6.60;99.90;;;;;;5129600;28;20227;-73
2022/02/03 07:46:35;;;;;;;12.90;8.07;;;6.60;99.90;;;;;;5131310;28;20286;-72
2022/02/03 07:49:03;;;;;;;11.70;8.00;;;6.50;99.90;;;;;;5130039;28;20460;-72
2022/02/03 07:51:30;;;;;;;11.57;8.03;;;6.50;99.90;;;;;;5130994;28;20197;-73
2022/02/03 07:53:58;;;;;;;14.60;8.90;;;6.60;99.90;;;;;;5131206;28;20642;-73
2022/02/03 07:56:25;;;;;;;13.90;8.27;;;6.60;99.90;;;;;;5131038;28;20256;-73
2022/02/03 07:58:52;;;;;;;12.27;7.97;;;6.60;99.90;;;;;;5129753;28;20201;-73
2022/02/03 08:01:20;;;;;;;13.60;8.07;;;6.60;99.90;;;;;;5129806;28;20269;-73
2022/02/03 08:03:48;;;;;;;13.77;8.43;;;6.60;99.90;;;;;;5129790;28;20196;-73
2022/02/03 08:06:20;;;;;;;14.90;8.33;;;6.70;99.90;;;;;;5130257;28;20216;-73
2022/02/03 08:08:50;;;;;;;10.90;7.70;;;6.70;99.90;;;;;;5130759;28;20253;-73
2022/02/03 08:11:24;;;;;;;13.10;7.90;;;6.70;99.90;;;;;;5130762;27;20688;-72
2022/02/03 08:13:55;;;;;;;13.57;8.03;;;6.70;99.90;;;;;;5134671;27;20204;-73
2022/02/03 08:16:27;;;;;;;13.67;8.53;;;6.70;99.90;;;;;;5133962;27;20192;-73
2022/02/03 08:19:02;;;;;;;13.93;8.67;;;6.70;99.90;;;;;;5134365;27;20203;-73
2022/02/03 08:21:30;;;;;;;14.33;8.30;;;6.80;99.90;;;;;;5134538;27;20218;-73
2022/02/03 08:24:17;;;;;;;16.10;8.63;;;6.80;99.90;;;;;;5134613;27;20253;-73
2022/02/03 08:26:59;;;;;;;13.27;8.30;;;6.80;99.90;;;;;;5133346;27;20542;-73
2022/02/03 08:32:27;;;;;;;10.97;7.30;;;6.90;99.90;;;;;;5133439;27;20199;-72
2022/02/03 08:35:19;;;;;;;11.63;7.53;;;6.90;99.90;;;;;;5133310;27;20200;-72
2022/02/03 08:37:57;;;;;;;12.23;7.57;;;6.90;99.90;;;;;;5134834;27;20570;-73
2022/02/03 08:40:28;;;;;;;13.03;7.67;;;6.90;99.90;;;;;;5134442;27;20203;-72
2022/02/03 08:42:57;;;;;;;13.20;7.90;;;7.00;99.90;;;;;;5133204;27;20207;-73
2022/02/03 08:45:24;;;;;;;13.43;7.80;;;7.00;99.90;;;;;;5134306;27;20777;-72
2022/02/03 08:47:51;;;;;;;10.70;7.03;;;7.00;99.90;;;;;;5134179;27;20228;-73
2022/02/03 08:50:19;;;;;;;12.30;7.63;;;7.00;99.90;;;;;;5132971;27;20237;-73
2022/02/03 08:52:55;;;;;;;11.90;7.50;;;7.00;99.90;;;;;;5134376;27;20208;-73
2022/02/03 08:55:28;;;;;;;12.47;8.17;;;7.00;99.90;;;;;;5133909;27;20287;-73
2022/02/03 09:37:48;;;;;;;10.30;6.37;;;7.40;99.90;;;;;;5128756;28;20372;-71
2022/02/03 09:40:45;;;;;;;10.03;6.70;;;7.40;99.90;;;;;;5128611;28;20278;-72
2022/02/03 09:57:30;;;;;;;14.80;8.03;;;7.70;99.90;;;;;;5128157;28;20253;-72
2022/02/03 10:00:17;;;;;;;13.17;8.10;;;7.70;99.90;;;;;;5128226;28;20231;-72
2022/02/03 10:02:56;;;;;;;15.37;8.00;;;7.70;99.90;;;;;;5127836;28;20204;-71
2022/02/03 10:05:33;;;;;;;15.37;8.43;;;7.80;99.90;;;;;;5127996;28;20269;-72
2022/02/03 10:08:02;;;;;;;15.20;8.70;;;7.80;99.90;;;;;;5128251;28;20214;-72
2022/02/03 10:10:30;;;;;;;14.27;8.60;;;7.80;99.90;;;;;;5124569;28;20254;-72
2022/02/03 10:12:57;;;;;;;15.20;9.10;;;7.80;99.90;;;;;;5114162;28;20201;-71
2022/02/03 10:15:25;;;;;;;15.07;8.50;;;7.80;99.90;;;;;;5114102;28;20205;-72
2022/02/03 10:17:57;;;;;;;14.17;8.40;;;7.80;99.90;;;;;;5114322;28;20678;-70
2022/02/03 10:20:28;;;;;;;14.30;8.50;;;7.80;99.90;;;;;;5113853;28;20213;-70
2022/02/03 10:22:59;;;;;;;15.43;8.83;;;7.70;99.90;;;;;;5114539;28;20204;-70
2022/02/03 10:25:29;;;;;;;14.03;8.40;;;7.70;99.90;;;;;;5113860;28;20197;-70
2022/02/03 10:28:01;;;;;;;15.27;8.43;;;7.70;99.90;;;;;;5114395;28;20250;-70
2022/02/03 10:30:36;;;;;;;14.33;8.20;;;7.70;99.90;;;;;;5114048;28;20685;-70
2022/02/03 10:33:04;;;;;;;15.17;7.80;;;7.70;99.90;;;;;;5114172;28;20643;-70
2022/02/03 10:35:37;;;;;;;13.60;7.60;;;7.70;99.90;;;;;;5113506;28;20559;-70
2022/02/03 10:38:38;;;;;;;14.33;8.27;;;7.70;99.90;;;;;;5114013;28;20197;-70
2022/02/03 10:44:27;;;;;;;14.80;7.40;;;7.80;99.90;;;;;;5050710;28;20248;-75
2022/02/03 10:47:10;;;;;;;12.77;7.40;;;7.80;99.90;;;;;;5050807;28;20213;-75
2022/02/03 10:58:39;;;;;;;14.27;8.07;;;7.90;99.90;;;;;;5101726;28;20667;-74
2022/02/03 11:04:13;;;;;;;17.70;9.13;;;8.00;99.90;;;;;;5074919;28;20197;-74
2022/02/03 11:06:53;;;;;;;13.07;7.90;;;8.00;99.90;;;;;;5092495;28;20200;-74
2022/02/03 11:09:29;;;;;;;15.53;8.60;;;8.10;99.90;;;;;;5104057;28;20254;-74
2022/02/03 11:11:59;;;;;;;14.83;8.20;;;8.10;99.90;;;;;;5094060;28;20201;-74
2022/02/03 11:14:30;;;;;;;16.57;8.13;;;8.20;99.90;;;;;;5112375;28;20258;-74
2022/02/03 11:16:58;;;;;;;14.03;7.63;;;8.20;99.90;;;;;;5111613;28;20201;-74
2022/02/03 11:19:29;;;;;;;13.87;7.97;;;8.30;99.90;;;;;;5094578;28;20308;-74
2022/02/03 11:22:07;;;;;;;14.07;8.03;;;8.20;99.90;;;;;;5091158;28;20620;-74
2022/02/03 11:24:39;;;;;;;13.83;7.67;;;8.30;99.90;;;;;;5092233;28;20197;-74
2022/02/03 11:27:18;;;;;;;13.17;7.93;;;8.30;99.90;;;;;;5092428;28;20283;-74
2022/02/03 11:36:20;;;;;;;17.23;8.03;;;8.40;99.90;;;;;;5130151;27;20268;-74
2022/02/03 12:01:42;;;;;;;14.63;8.20;;;8.40;99.90;;;;;;5109208;28;20589;-74
2022/02/03 12:13:18;;;;;;;16.73;9.00;;;8.40;99.90;;;;;;5095151;28;20247;-74
2022/02/03 12:16:05;;;;;;;15.03;8.43;;;8.40;99.90;;;;;;5110487;28;20633;-74
2022/02/03 12:21:32;;;;;;;15.20;8.00;;;8.40;99.90;;;;;;5109867;28;20247;-72
2022/02/03 12:24:20;;;;;;;16.00;9.07;;;8.40;99.90;;;;;;5111756;28;20212;-72
2022/02/03 12:26:53;;;;;;;13.97;7.73;;;8.40;99.90;;;;;;5112295;28;20211;-72
2022/02/03 12:29:28;;;;;;;14.60;7.83;;;8.40;99.90;;;;;;5112518;28;20209;-71
2022/02/03 12:32:11;;;;;;;11.03;6.90;;;8.40;99.90;;;;;;5112557;28;20200;-71
2022/02/03 12:40:18;;;;;;;9.57;5.47;;;8.40;99.90;;;;;;5111416;28;20227;-72
2022/02/03 12:42:55;;;;;;;11.10;6.10;;;8.30;99.90;;;;;;5112298;28;20213;-72
2022/02/03 12:45:26;;;;;;;10.17;6.17;;;8.30;99.90;;;;;;5111957;28;20235;-71
2022/02/03 12:47:55;;;;;;;10.80;6.03;;;8.30;99.90;;;;;;5112533;28;20712;-71
2022/02/03 12:50:24;;;;;;;14.20;6.97;;;8.30;99.90;;;;;;5112268;28;20621;-71
2022/02/03 12:52:53;;;;;;;11.57;6.70;;;8.30;99.90;;;;;;5112275;28;20201;-71
2022/02/03 12:55:23;;;;;;;12.13;6.80;;;8.30;99.90;;;;;;5111898;28;20209;-71
2022/02/03 12:57:51;;;;;;;10.77;6.27;;;8.30;99.90;;;;;;5104053;28;20204;-71
2022/02/03 13:00:26;;;;;;;12.70;6.67;;;8.30;99.90;;;;;;5112066;28;20220;-72
2022/02/03 13:02:55;;;;;;;10.60;6.27;;;8.30;99.90;;;;;;5111901;28;20204;-71
2022/02/03 13:05:23;;;;;;;10.60;6.47;;;8.20;99.90;;;;;;5111814;28;20205;-71
2022/02/03 13:07:57;;;;;;;11.77;6.63;;;8.20;99.90;;;;;;5112251;28;20296;-71
2022/02/03 13:10:26;;;;;;;11.07;6.37;;;8.20;99.90;;;;;;5112278;28;20258;-71
2022/02/03 13:13:04;;;;;;;12.23;5.90;;;8.20;99.90;;;;;;5112160;28;20654;-71
2022/02/03 13:15:35;;;;;;;15.53;6.57;;;8.20;99.90;;;;;;5103373;28;20827;-71
2022/02/03 13:18:07;;;;;;;12.57;6.60;;;8.20;99.90;;;;;;5105198;28;20209;-71
2022/02/03 13:20:43;;;;;;;15.57;7.37;;;8.20;99.90;;;;;;5106212;28;20624;-71
2022/02/03 13:23:17;;;;;;;12.47;7.03;;;8.20;99.90;;;;;;5105110;28;20708;-71
2022/02/03 13:25:55;;;;;;;11.77;6.30;;;8.20;99.90;;;;;;5104334;28;20205;-71
2022/02/03 13:28:33;;;;;;;12.50;6.87;;;8.20;99.90;;;;;;5106926;28;20208;-71
2022/02/03 13:31:17;;;;;;;14.23;7.10;;;8.20;99.90;;;;;;5101259;28;20208;-71
2022/02/03 13:33:52;;;;;;;13.90;6.73;;;8.10;99.90;;;;;;5103007;28;20668;-72
2022/02/03 13:36:24;;;;;;;11.67;6.90;;;8.10;99.90;;;;;;5108441;28;20229;-72
2022/02/03 13:39:01;;;;;;;13.23;6.90;;;8.10;99.90;;;;;;5098943;28;20559;-71
2022/02/03 13:41:32;;;;;;;20.83;7.40;;;8.20;99.90;;;;;;5106969;28;20221;-72
2022/02/03 13:44:05;;;;;;;13.03;7.23;;;8.20;99.90;;;;;;5110584;28;20197;-72
2022/02/03 13:46:33;;;;;;;13.07;7.33;;;8.20;99.90;;;;;;5107702;27;20194;-72
2022/02/03 13:49:01;;;;;;;13.13;7.93;;;8.20;99.90;;;;;;5105884;27;20673;-71
2022/02/03 13:51:29;;;;;;;13.67;7.37;;;8.20;99.90;;;;;;5103109;27;20582;-72
2022/02/03 13:54:06;;;;;;;13.47;7.37;;;8.20;99.90;;;;;;5119399;27;20266;-72
2022/02/03 14:19:03;;;;;;;12.70;6.70;;;8.10;99.90;;;;;;5136276;27;20192;-71
2022/02/03 14:21:37;;;;;;;16.07;9.17;;;8.10;99.90;;;;;;5129603;27;20277;-72
2022/02/03 14:29:38;;;;;;;15.03;8.30;;;8.10;99.90;;;;;;5116019;27;20203;-72
2022/02/03 14:32:07;;;;;;;14.00;7.33;;;8.20;99.90;;;;;;5090651;28;20217;-72
2022/02/03 14:34:35;;;;;;;15.20;8.23;;;8.10;99.90;;;;;;5103916;27;20198;-72
2022/02/03 14:37:07;;;;;;;12.77;7.60;;;8.10;99.90;;;;;;5115762;27;20603;-72
2022/02/03 14:39:49;;;;;;;15.47;8.00;;;8.10;99.90;;;;;;5095706;27;20205;-72
2022/02/03 14:42:17;;;;;;;12.70;7.50;;;8.20;99.90;;;;;;5110515;27;20200;-72
2022/02/03 14:44:44;;;;;;;12.00;6.33;;;8.20;99.90;;;;;;5110687;27;20238;-72
2022/02/03 14:47:12;;;;;;;11.20;6.60;;;8.20;99.90;;;;;;5111737;28;20690;-72
2022/02/03 14:49:42;;;;;;;8.73;5.17;;;8.20;99.90;;;;;;5112213;27;20213;-72
2022/02/03 14:52:24;;;;;;;9.13;5.50;;;8.10;99.90;;;;;;5112657;27;20197;-72
2022/02/03 15:00:33;;;;;;;7.30;4.83;;;8.10;99.90;;;;;;5051567;28;20302;-72
2022/02/03 15:03:01;;;;;;;8.90;6.30;;;8.10;99.90;;;;;;5087582;28;20208;-72
2022/02/03 15:05:31;;;;;;;10.00;6.60;;;8.10;99.90;;;;;;5130449;27;20250;-72
2022/02/03 15:08:01;;;;;;;7.23;4.47;;;8.10;99.90;;;;;;5134851;27;20208;-72
2022/02/03 15:13:16;;;;;;;5.67;3.97;;;8.00;99.90;;;;;;5131599;27;20236;-71
2022/02/03 15:15:44;;;;;;;5.40;3.90;;;8.00;99.90;;;;;;5117290;27;20213;-72
2022/02/03 15:18:11;;;;;;;5.70;3.90;;;8.00;99.90;;;;;;5114480;28;20655;-72
2022/02/03 15:20:38;;;;;;;7.57;4.93;;;8.00;99.90;;;;;;5104996;27;20216;-72
2022/02/03 15:23:06;;;;;;;8.07;5.43;;;8.00;99.90;;;;;;5109895;27;20208;-72
2022/02/03 15:25:34;;;;;;;10.23;7.30;;;7.90;99.90;;;;;;5111407;27;20300;-72
2022/02/03 15:28:01;;;;;;;13.87;9.13;;;7.70;99.90;;;;;;5102749;27;20235;-72
2022/02/03 15:30:29;;;;;;;15.63;9.53;;;7.60;99.90;;;;;;5101595;28;20200;-72
2022/02/03 15:32:57;;;;;;;16.33;10.30;;;7.60;99.90;;;;;;5107761;27;20236;-72
2022/02/03 15:35:29;;;;;;;17.63;10.93;;;7.60;99.90;;;;;;5106869;27;20200;-72
2022/02/03 15:37:56;;;;;;;16.37;10.00;;;7.60;99.90;;;;;;5111950;27;20205;-72
2022/02/03 15:40:26;;;;;;;16.13;10.43;;;7.60;99.90;;;;;;5110808;27;20308;-72
2022/02/03 15:42:59;;;;;;;16.87;11.63;;;7.60;99.90;;;;;;5110223;27;20197;-72
2022/02/03 15:45:32;;;;;;;19.90;13.00;;;7.60;99.90;;;;;;5107956;27;20197;-72
2022/02/03 15:48:05;;;;;;;17.20;11.67;;;7.50;99.90;;;;;;5110420;27;20196;-72
2022/02/03 15:50:55;;;;;;;17.50;11.57;;;7.50;99.90;;;;;;5108458;27;20193;-72
2022/02/03 15:56:24;;;;;;;17.53;12.13;;;7.50;99.90;;;;;;5109429;28;20203;-74
2022/02/03 16:02:08;;;;;;;17.87;11.83;;;7.50;99.90;;;;;;5085707;28;20333;-74
2022/02/03 16:18:36;;;;;;;21.20;14.00;;;7.40;99.90;;;;;;5083886;28;20197;-72
2022/02/03 16:21:14;;;;;;;20.40;13.77;;;7.40;99.90;;;;;;5078403;28;20213;-72
2022/02/03 16:24:06;;;;;;;20.00;12.27;;;7.40;99.90;;;;;;5080377;28;20209;-72
2022/02/03 16:51:12;;;;;;;21.63;14.20;;;7.20;99.90;;;;;;5082646;28;20604;-72
2022/02/03 16:53:41;;;;;;;23.17;14.67;;;7.20;99.90;;;;;;5067288;28;20200;-72
2022/02/03 16:56:11;;;;;;;19.27;12.77;;;7.20;99.90;;;;;;5077926;28;20202;-71
2022/02/03 16:58:41;;;;;;;20.83;13.30;;;7.20;99.90;;;;;;5078959;28;20197;-72
2022/02/03 17:01:08;;;;;;;20.43;12.10;;;7.20;99.90;;;;;;5078622;28;20237;-72
2022/02/03 17:03:35;;;;;;;18.53;11.60;;;7.20;99.90;;;;;;5103557;28;20655;-71
2022/02/03 17:06:02;;;;;;;17.80;10.27;;;7.20;99.90;;;;;;5110525;28;20197;-71
2022/02/03 17:08:28;;;;;;;16.97;10.20;;;7.20;99.90;;;;;;5118474;28;20207;-72
2022/02/03 17:10:57;;;;;;;19.30;11.47;;;7.20;99.90;;;;;;5111444;28;20674;-71
2022/02/03 17:13:24;;;;;;;18.10;11.33;;;7.20;99.90;;;;;;5110244;28;20643;-72
2022/02/03 17:15:50;;;;;;;18.27;11.23;;;7.20;99.90;;;;;;5111000;28;20223;-72
2022/02/03 17:18:17;;;;;;;15.87;10.00;;;7.30;99.90;;;;;;5109587;28;20296;-70
2022/02/03 17:20:45;;;;;;;15.23;9.43;;;7.30;99.90;;;;;;5131978;27;20223;-72
2022/02/03 17:23:17;;;;;;;13.73;8.47;;;7.30;99.90;;;;;;5120258;27;20654;-72
2022/02/03 17:25:49;;;;;;;15.77;9.73;;;7.30;1.00;;;;;;5117210;27;20203;-72
2022/02/03 17:28:23;;;;;;;15.00;8.70;;;7.40;1.00;;;;;;5117343;27;20283;-71
2022/02/03 17:30:55;;;;;;;13.27;8.23;;;7.40;1.00;;;;;;5113501;28;20682;-71
2022/02/03 17:53:11;;;;;;;13.23;8.00;;;7.30;1.00;;;;;;5115400;28;20196;-72
2022/02/03 18:09:50;;;;;;;14.50;8.30;;;7.20;1.00;;;;;;5135691;27;20302;-71
2022/02/03 18:45:51;;;;;;;15.47;9.93;;;7.10;1.00;;;;;;5103367;28;20224;-71
2022/02/03 18:51:42;;;;;;;13.40;8.30;;;6.80;99.90;;;;;;5150549;27;20229;-74
2022/02/03 18:54:18;;;;;;;15.57;9.57;;;6.80;99.90;;;;;;5150837;27;20629;-73
2022/02/03 18:56:53;;;;;;;18.03;10.83;;;6.80;99.90;;;;;;5132170;27;20204;-72
2022/02/03 19:02:35;;;;;;;18.67;11.40;;;6.70;99.90;;;;;;5130097;27;20243;-70
2022/02/03 19:25:01;;;;;;;14.60;9.50;;;6.70;99.90;;;;;;5132635;27;20204;-70
2022/02/03 19:27:47;;;;;;;13.83;9.60;;;6.70;99.90;;;;;;5128722;27;20666;-70
2022/02/03 20:01:45;;;;;;;19.57;12.63;;;6.70;99.90;;;;;;5112255;27;1299261;-70
2022/02/03 20:04:17;;;;;;;22.07;13.70;;;6.70;99.90;;;;;;5125915;28;20195;-70
2022/02/03 20:06:58;;;;;;;22.93;13.50;;;6.70;99.90;;;;;;5125523;28;20204;-70
2022/02/03 20:09:36;;;;;;;21.60;13.03;;;6.70;99.90;;;;;;5123328;28;20483;-70
2022/02/03 20:12:04;;;;;;;19.33;11.60;;;6.70;99.90;;;;;;5125085;28;20208;-70
2022/02/03 20:14:30;;;;;;;20.13;12.97;;;6.70;99.90;;;;;;5127697;28;20196;-70
2022/02/03 20:16:59;;;;;;;20.33;13.20;;;6.70;99.90;;;;;;5128537;28;20220;-70
2022/02/03 20:19:26;;;;;;;21.20;12.97;;;6.70;99.90;;;;;;5125479;28;20226;-70
2022/02/03 20:21:53;;;;;;;21.00;13.27;;;6.70;99.90;;;;;;5125748;28;20197;-70
2022/02/03 20:24:20;;;;;;;21.47;13.20;;;6.70;99.90;;;;;;5125498;28;20300;-70
2022/02/03 20:26:47;;;;;;;23.03;13.50;;;6.70;99.90;;;;;;5121795;28;20208;-70
2022/02/03 20:29:14;;;;;;;21.63;13.47;;;6.70;99.90;;;;;;5123183;28;20287;-70
2022/02/03 20:31:41;;;;;;;22.63;13.57;;;6.70;99.90;;;;;;5124146;28;20226;-70
2022/02/03 20:34:10;;;;;;;22.40;13.70;;;6.70;99.90;;;;;;5125961;28;20488;-70
2022/02/03 20:36:37;;;;;;;22.67;14.17;;;6.70;99.90;;;;;;5125121;28;20196;-70
2022/02/03 20:39:05;;;;;;;22.97;13.67;;;6.70;99.90;;;;;;5127509;28;20674;-70
2022/02/03 20:41:31;;;;;;;21.73;13.00;;;6.70;99.90;;;;;;5119828;28;20211;-70
2022/02/03 20:43:58;;;;;;;23.50;13.17;;;6.80;99.90;;;;;;5127127;28;20307;-70
2022/02/03 20:46:25;;;;;;;22.77;13.43;;;6.80;99.90;;;;;;5123425;28;20215;-70
2022/02/03 20:48:52;;;;;;;22.10;13.30;;;6.80;99.90;;;;;;5123266;28;20205;-70
2022/02/03 20:51:22;;;;;;;22.10;13.13;;;6.80;99.90;;;;;;5125207;28;20209;-70
2022/02/03 20:53:50;;;;;;;20.07;12.43;;;6.80;99.90;;;;;;5119371;28;20292;-70
2022/02/03 20:56:18;;;;;;;20.47;12.70;;;6.80;99.90;;;;;;5123753;28;20257;-70
2022/02/03 20:58:47;;;;;;;19.20;12.83;;;6.80;99.90;;;;;;5122653;28;20460;-70
2022/02/03 21:01:19;;;;;;;20.90;12.53;;;6.90;54.00;;;;;;5119274;28;20200;-70
2022/02/03 21:03:48;;;;;;;22.50;12.73;;;6.90;68.50;;;;;;5120368;28;20209;-71
2022/02/03 21:06:15;;;;;;;20.03;12.13;;;6.90;9.20;;;;;;5123659;28;20658;-70
2022/02/03 21:08:46;;;;;;;23.03;13.70;;;6.90;1.00;;;;;;5115285;28;20272;-70
2022/02/03 21:11:14;;;;;;;24.10;13.63;;;6.90;1.00;;;;;;5113428;28;20658;-70
2022/02/03 21:13:43;;;;;;;20.60;13.10;;;6.90;1.00;;;;;;5111333;28;20205;-70
2022/02/03 21:16:10;;;;;;;21.53;13.63;;;6.90;1.00;;;;;;5112127;28;20201;-71
2022/02/03 21:18:40;;;;;;;19.70;12.00;;;6.90;1.00;;;;;;5111831;28;20527;-70
2022/02/03 21:21:08;;;;;;;20.40;12.20;;;7.00;1.00;;;;;;5111694;28;20312;-70
2022/02/03 21:23:36;;;;;;;19.43;11.77;;;7.00;1.00;;;;;;5111510;28;20209;-70
2022/02/03 21:26:07;;;;;;;21.40;13.23;;;7.00;1.00;;;;;;5111486;28;20660;-70
2022/02/03 21:28:36;;;;;;;22.53;12.93;;;7.00;1.00;;;;;;5110832;28;20470;-70
2022/02/03 21:31:06;;;;;;;21.70;13.53;;;7.00;1.00;;;;;;5111285;28;20250;-70
2022/02/03 21:33:35;;;;;;;21.87;13.57;;;6.90;1.00;;;;;;5110417;28;20193;-70
2022/02/03 21:36:08;;;;;;;23.70;13.80;;;6.90;1.00;;;;;;5111092;28;20201;-70
2022/02/03 21:38:37;;;;;;;21.33;12.57;;;6.90;1.00;;;;;;5092784;28;20538;-70
2022/02/03 21:41:07;;;;;;;22.27;12.77;;;6.90;1.00;;;;;;5104903;28;20253;-70
2022/02/03 21:43:34;;;;;;;20.83;12.97;;;6.90;1.00;;;;;;5110405;28;20773;-70
2022/02/03 21:46:01;;;;;;;22.73;14.63;;;6.90;9.20;;;;;;5109663;28;20515;-70
2022/02/03 21:48:28;;;;;;;20.73;12.87;;;6.90;6.50;;;;;;5111035;28;20541;-70
2022/02/03 21:50:58;;;;;;;23.03;14.47;;;6.90;66.70;;;;;;5095678;28;20216;-70
2022/02/03 21:53:29;;;;;;;23.20;14.43;;;6.80;96.10;;;;;;5110420;28;20239;-70
2022/02/03 21:55:57;;;;;;;24.07;14.73;;;6.80;99.90;;;;;;5111883;28;20212;-70
2022/02/03 21:58:26;;;;;;;25.07;17.23;;;6.80;99.90;;;;;;5110988;28;20651;-70
2022/02/03 22:00:54;;;;;;;23.97;13.90;;;6.80;99.90;;;;;;5111251;28;20586;-70
2022/02/03 22:03:24;;;;;;;21.80;13.90;;;6.80;99.90;;;;;;5111440;28;20550;-70
2022/02/03 22:05:51;;;;;;;21.40;13.70;;;6.90;99.90;;;;;;5110643;28;20809;-70